VTUO METAR and TAF | Updated Today

VTUO METAR

Buri Ram Airport

Observation time: 8 min. ago

VTUO 200800Z 22007KT 9999 FEW020TCU BKN030 31/27 Q1005 NOSIG

Need help? Read our tutorial on how to read METARs or read the parsed version below.

Buri Ram Airport (VTUO) METAR

  • Weather conditions on Fri, 20 May 2022 08:00:00 +0000 (8 min. ago):
  • Present conditions: Dry
  • Clouds: A few at 610 meters, towering cumulus; broken sky at 914 meters
  • Visibility: Greater than 10 km
  • Wind: 220 degrees at 7 knots
  • Temperature: 31 celsius
  • Dew point: 27 celsius
  • Pressure: 1005 millibars
  • Remarks: None


Useful to know...

VTUO TAF

Buri Ram Airport

TAF VTUO 200500Z 2006/2106 21007KT 9999 SCT025 TEMPO 2010/2013 VRB17KT 4000 TSRA FEW018CB BKN025
Observation time: 3:08 hr. ago
Need help? Read our tutorial on how to read TAFs or read the parsed version below.

Parsed version of TAF for Buri Ram Airport (VTUO)

  • From 20 May at 06:00 UTC, to day 21 of the month at 06:00 UTC
  • Clouds: Scattered at 762 meters
  • Visibility: Greater than 10 km
  • Wind: 210 degrees at 7
  • Expected to arise temporarily, from 20 May at 10:00 UTC, to day 20 of the month at 13:00 UTC
  • Clouds: A few at 549 meters, cumulonimbus; broken sky at 762 meters
  • Visibility: 4000 meters
  • Wind: Variable at 17
  • Other: Thunderstorms rain